sensor_id;sensor_type;location;lat;lon;timestamp;P1;durP1;ratioP1;P2;durP2;ratioP2
30068;SDS011;16894;49.456;10.644;2022-10-16T00:02:09;8.23;;;3.90;;
30068;SDS011;16894;49.456;10.644;2022-10-16T00:04:35;4.23;;;3.93;;
30068;SDS011;16894;49.456;10.644;2022-10-16T00:07:00;8.57;;;4.80;;
30068;SDS011;16894;49.456;10.644;2022-10-16T00:09:26;4.97;;;4.68;;
30068;SDS011;16894;49.456;10.644;2022-10-16T00:11:52;5.80;;;5.30;;
30068;SDS011;16894;49.456;10.644;2022-10-16T00:14:17;5.17;;;4.87;;
30068;SDS011;16894;49.456;10.644;2022-10-16T00:16:43;10.53;;;5.87;;
30068;SDS011;16894;49.456;10.644;2022-10-16T00:19:09;7.40;;;6.90;;
30068;SDS011;16894;49.456;10.644;2022-10-16T00:21:36;9.23;;;7.75;;
30068;SDS011;16894;49.456;10.644;2022-10-16T00:24:03;9.07;;;6.07;;
30068;SDS011;16894;49.456;10.644;2022-10-16T00:26:32;7.15;;;6.53;;
30068;SDS011;16894;49.456;10.644;2022-10-16T00:28:59;7.07;;;6.57;;
30068;SDS011;16894;49.456;10.644;2022-10-16T00:31:25;6.93;;;6.40;;
30068;SDS011;16894;49.456;10.644;2022-10-16T00:33:51;8.40;;;7.53;;
30068;SDS011;16894;49.456;10.644;2022-10-16T00:36:18;8.00;;;7.25;;
30068;SDS011;16894;49.456;10.644;2022-10-16T00:38:46;12.85;;;7.40;;
30068;SDS011;16894;49.456;10.644;2022-10-16T00:41:14;6.80;;;6.07;;
30068;SDS011;16894;49.456;10.644;2022-10-16T00:43:44;7.70;;;6.93;;
30068;SDS011;16894;49.456;10.644;2022-10-16T00:46:21;8.15;;;7.35;;
30068;SDS011;16894;49.456;10.644;2022-10-16T00:48:54;7.15;;;6.50;;
30068;SDS011;16894;49.456;10.644;2022-10-16T00:51:36;7.80;;;7.07;;
30068;SDS011;16894;49.456;10.644;2022-10-16T00:54:04;11.98;;;8.05;;
30068;SDS011;16894;49.456;10.644;2022-10-16T00:56:34;9.15;;;7.13;;
30068;SDS011;16894;49.456;10.644;2022-10-16T00:59:01;9.20;;;8.40;;
30068;SDS011;16894;49.456;10.644;2022-10-16T01:01:30;8.35;;;7.65;;
30068;SDS011;16894;49.456;10.644;2022-10-16T01:03:56;7.53;;;6.70;;
30068;SDS011;16894;49.456;10.644;2022-10-16T01:06:23;10.20;;;9.40;;
30068;SDS011;16894;49.456;10.644;2022-10-16T01:17:08;12.18;;;8.65;;
30068;SDS011;16894;49.456;10.644;2022-10-16T01:22:22;10.13;;;9.27;;
30068;SDS011;16894;49.456;10.644;2022-10-16T01:24:53;9.82;;;8.85;;
30068;SDS011;16894;49.456;10.644;2022-10-16T01:27:38;15.77;;;9.93;;
30068;SDS011;16894;49.456;10.644;2022-10-16T01:30:10;10.68;;;9.82;;
30068;SDS011;16894;49.456;10.644;2022-10-16T01:35:19;11.38;;;10.20;;
30068;SDS011;16894;49.456;10.644;2022-10-16T01:41:14;14.35;;;9.98;;
30068;SDS011;16894;49.456;10.644;2022-10-16T01:43:48;11.00;;;10.30;;
30068;SDS011;16894;49.456;10.644;2022-10-16T01:46:22;10.13;;;9.32;;
30068;SDS011;16894;49.456;10.644;2022-10-16T01:48:49;9.10;;;8.32;;
30068;SDS011;16894;49.456;10.644;2022-10-16T01:51:16;9.43;;;8.43;;
30068;SDS011;16894;49.456;10.644;2022-10-16T01:53:44;8.60;;;7.88;;
30068;SDS011;16894;49.456;10.644;2022-10-16T01:56:13;8.20;;;6.68;;
30068;SDS011;16894;49.456;10.644;2022-10-16T01:58:44;9.35;;;6.70;;
30068;SDS011;16894;49.456;10.644;2022-10-16T02:01:14;7.32;;;6.72;;
30068;SDS011;16894;49.456;10.644;2022-10-16T02:03:43;8.70;;;7.30;;
30068;SDS011;16894;49.456;10.644;2022-10-16T02:06:11;10.48;;;7.32;;
30068;SDS011;16894;49.456;10.644;2022-10-16T02:08:37;8.40;;;7.65;;
30068;SDS011;16894;49.456;10.644;2022-10-16T02:11:05;8.60;;;7.90;;
30068;SDS011;16894;49.456;10.644;2022-10-16T02:13:39;8.15;;;7.45;;
30068;SDS011;16894;49.456;10.644;2022-10-16T02:16:18;9.20;;;7.60;;
30068;SDS011;16894;49.456;10.644;2022-10-16T02:18:43;7.10;;;6.60;;
30068;SDS011;16894;49.456;10.644;2022-10-16T02:21:17;6.80;;;6.25;;
30068;SDS011;16894;49.456;10.644;2022-10-16T02:26:44;11.75;;;8.32;;
30068;SDS011;16894;49.456;10.644;2022-10-16T02:29:23;12.30;;;7.72;;
30068;SDS011;16894;49.456;10.644;2022-10-16T02:31:52;8.27;;;7.05;;
30068;SDS011;16894;49.456;10.644;2022-10-16T02:34:21;8.82;;;7.90;;
30068;SDS011;16894;49.456;10.644;2022-10-16T02:36:50;8.35;;;7.65;;
30068;SDS011;16894;49.456;10.644;2022-10-16T02:39:17;10.23;;;6.60;;
30068;SDS011;16894;49.456;10.644;2022-10-16T02:41:44;6.40;;;5.80;;
30068;SDS011;16894;49.456;10.644;2022-10-16T02:44:10;17.55;;;6.47;;
30068;SDS011;16894;49.456;10.644;2022-10-16T02:46:35;9.87;;;6.97;;
30068;SDS011;16894;49.456;10.644;2022-10-16T02:49:01;7.17;;;6.57;;
30068;SDS011;16894;49.456;10.644;2022-10-16T02:51:27;7.70;;;7.07;;
30068;SDS011;16894;49.456;10.644;2022-10-16T02:53:52;10.20;;;6.10;;
30068;SDS011;16894;49.456;10.644;2022-10-16T02:56:18;6.27;;;5.67;;
30068;SDS011;16894;49.456;10.644;2022-10-16T02:58:43;6.75;;;6.07;;
30068;SDS011;16894;49.456;10.644;2022-10-16T03:01:09;6.47;;;5.97;;
30068;SDS011;16894;49.456;10.644;2022-10-16T03:03:35;7.78;;;7.10;;
30068;SDS011;16894;49.456;10.644;2022-10-16T03:06:01;7.83;;;6.70;;
30068;SDS011;16894;49.456;10.644;2022-10-16T03:08:26;6.90;;;6.30;;
30068;SDS011;16894;49.456;10.644;2022-10-16T03:10:52;6.87;;;6.27;;
30068;SDS011;16894;49.456;10.644;2022-10-16T03:13:17;6.90;;;6.30;;
30068;SDS011;16894;49.456;10.644;2022-10-16T03:15:45;10.65;;;6.00;;
30068;SDS011;16894;49.456;10.644;2022-10-16T03:18:11;7.30;;;6.55;;
30068;SDS011;16894;49.456;10.644;2022-10-16T03:20:36;10.48;;;6.88;;
30068;SDS011;16894;49.456;10.644;2022-10-16T03:23:02;7.20;;;6.70;;
30068;SDS011;16894;49.456;10.644;2022-10-16T03:25:28;7.90;;;7.20;;
30068;SDS011;16894;49.456;10.644;2022-10-16T03:27:53;8.43;;;7.60;;
30068;SDS011;16894;49.456;10.644;2022-10-16T03:30:19;13.90;;;7.83;;
30068;SDS011;16894;49.456;10.644;2022-10-16T03:32:45;10.05;;;9.05;;
30068;SDS011;16894;49.456;10.644;2022-10-16T03:35:11;10.05;;;8.73;;
30068;SDS011;16894;49.456;10.644;2022-10-16T03:37:37;11.10;;;9.65;;
30068;SDS011;16894;49.456;10.644;2022-10-16T03:40:03;10.70;;;9.80;;
30068;SDS011;16894;49.456;10.644;2022-10-16T03:44:55;12.57;;;9.82;;
30068;SDS011;16894;49.456;10.644;2022-10-16T03:47:20;16.73;;;12.77;;
30068;SDS011;16894;49.456;10.644;2022-10-16T03:49:48;17.08;;;15.68;;
30068;SDS011;16894;49.456;10.644;2022-10-16T03:52:14;18.20;;;16.80;;
30068;SDS011;16894;49.456;10.644;2022-10-16T03:54:39;18.40;;;16.93;;
30068;SDS011;16894;49.456;10.644;2022-10-16T03:57:05;17.53;;;15.93;;
30068;SDS011;16894;49.456;10.644;2022-10-16T03:59:31;16.67;;;14.67;;
30068;SDS011;16894;49.456;10.644;2022-10-16T04:01:56;17.17;;;15.57;;
30068;SDS011;16894;49.456;10.644;2022-10-16T04:04:22;18.43;;;16.70;;
30068;SDS011;16894;49.456;10.644;2022-10-16T04:06:47;17.37;;;15.70;;
30068;SDS011;16894;49.456;10.644;2022-10-16T04:09:13;15.97;;;15.00;;
30068;SDS011;16894;49.456;10.644;2022-10-16T04:11:38;16.67;;;15.53;;
30068;SDS011;16894;49.456;10.644;2022-10-16T04:14:04;16.48;;;15.40;;
30068;SDS011;16894;49.456;10.644;2022-10-16T04:16:30;17.00;;;15.70;;
30068;SDS011;16894;49.456;10.644;2022-10-16T04:18:55;14.57;;;13.33;;
30068;SDS011;16894;49.456;10.644;2022-10-16T04:21:21;14.97;;;13.83;;
30068;SDS011;16894;49.456;10.644;2022-10-16T04:23:47;16.08;;;14.48;;
30068;SDS011;16894;49.456;10.644;2022-10-16T04:26:13;13.85;;;12.75;;
30068;SDS011;16894;49.456;10.644;2022-10-16T04:28:39;16.40;;;13.13;;
30068;SDS011;16894;49.456;10.644;2022-10-16T04:31:05;12.95;;;11.65;;
30068;SDS011;16894;49.456;10.644;2022-10-16T04:33:33;10.82;;;10.00;;
30068;SDS011;16894;49.456;10.644;2022-10-16T04:35:59;14.10;;;10.02;;
30068;SDS011;16894;49.456;10.644;2022-10-16T04:38:26;9.30;;;8.65;;
30068;SDS011;16894;49.456;10.644;2022-10-16T04:40:52;23.02;;;10.40;;
30068;SDS011;16894;49.456;10.644;2022-10-16T04:43:17;11.10;;;9.70;;
30068;SDS011;16894;49.456;10.644;2022-10-16T04:45:43;10.43;;;9.02;;
30068;SDS011;16894;49.456;10.644;2022-10-16T04:48:09;10.05;;;9.18;;
30068;SDS011;16894;49.456;10.644;2022-10-16T04:50:34;9.00;;;8.10;;
30068;SDS011;16894;49.456;10.644;2022-10-16T04:53:00;17.77;;;7.63;;
30068;SDS011;16894;49.456;10.644;2022-10-16T04:55:26;9.90;;;6.75;;
30068;SDS011;16894;49.456;10.644;2022-10-16T04:57:52;10.87;;;7.40;;
30068;SDS011;16894;49.456;10.644;2022-10-16T05:00:17;10.90;;;7.43;;
30068;SDS011;16894;49.456;10.644;2022-10-16T05:02:43;17.85;;;9.05;;
30068;SDS011;16894;49.456;10.644;2022-10-16T05:05:08;10.53;;;9.20;;
30068;SDS011;16894;49.456;10.644;2022-10-16T05:07:34;11.40;;;10.15;;
30068;SDS011;16894;49.456;10.644;2022-10-16T05:10:00;12.90;;;10.33;;
30068;SDS011;16894;49.456;10.644;2022-10-16T05:12:25;9.90;;;8.93;;
30068;SDS011;16894;49.456;10.644;2022-10-16T05:14:51;10.77;;;10.07;;
30068;SDS011;16894;49.456;10.644;2022-10-16T05:17:17;11.87;;;10.50;;
30068;SDS011;16894;49.456;10.644;2022-10-16T05:19:42;11.02;;;8.93;;
30068;SDS011;16894;49.456;10.644;2022-10-16T05:22:08;8.53;;;7.43;;
30068;SDS011;16894;49.456;10.644;2022-10-16T05:24:34;9.68;;;8.80;;
30068;SDS011;16894;49.456;10.644;2022-10-16T05:26:59;9.70;;;8.90;;
30068;SDS011;16894;49.456;10.644;2022-10-16T05:29:25;12.30;;;8.03;;
30068;SDS011;16894;49.456;10.644;2022-10-16T05:31:51;11.37;;;10.37;;
30068;SDS011;16894;49.456;10.644;2022-10-16T05:34:17;13.95;;;11.43;;
30068;SDS011;16894;49.456;10.644;2022-10-16T05:36:44;12.90;;;11.80;;
30068;SDS011;16894;49.456;10.644;2022-10-16T05:39:10;13.35;;;12.43;;
30068;SDS011;16894;49.456;10.644;2022-10-16T05:41:36;15.18;;;13.88;;
30068;SDS011;16894;49.456;10.644;2022-10-16T05:44:05;17.87;;;14.13;;
30068;SDS011;16894;49.456;10.644;2022-10-16T05:46:31;15.90;;;12.98;;
30068;SDS011;16894;49.456;10.644;2022-10-16T05:48:57;14.63;;;13.48;;
30068;SDS011;16894;49.456;10.644;2022-10-16T05:51:22;20.27;;;18.23;;
30068;SDS011;16894;49.456;10.644;2022-10-16T05:53:48;15.95;;;14.25;;
30068;SDS011;16894;49.456;10.644;2022-10-16T05:56:14;14.93;;;13.57;;
30068;SDS011;16894;49.456;10.644;2022-10-16T05:58:40;17.67;;;14.57;;
30068;SDS011;16894;49.456;10.644;2022-10-16T06:03:39;11.52;;;10.52;;
30068;SDS011;16894;49.456;10.644;2022-10-16T06:06:09;14.13;;;13.13;;
30068;SDS011;16894;49.456;10.644;2022-10-16T06:08:40;15.27;;;13.02;;
30068;SDS011;16894;49.456;10.644;2022-10-16T06:11:07;15.85;;;14.25;;
30068;SDS011;16894;49.456;10.644;2022-10-16T06:13:34;14.05;;;13.05;;
30068;SDS011;16894;49.456;10.644;2022-10-16T06:16:00;15.63;;;14.00;;
30068;SDS011;16894;49.456;10.644;2022-10-16T06:18:27;18.35;;;14.73;;
30068;SDS011;16894;49.456;10.644;2022-10-16T06:20:53;15.52;;;14.15;;
30068;SDS011;16894;49.456;10.644;2022-10-16T06:23:20;14.35;;;13.10;;
30068;SDS011;16894;49.456;10.644;2022-10-16T06:25:45;15.20;;;13.87;;
30068;SDS011;16894;49.456;10.644;2022-10-16T06:28:11;19.17;;;13.83;;
30068;SDS011;16894;49.456;10.644;2022-10-16T06:30:39;20.85;;;13.88;;
30068;SDS011;16894;49.456;10.644;2022-10-16T06:33:05;22.10;;;15.70;;
30068;SDS011;16894;49.456;10.644;2022-10-16T06:35:30;37.87;;;23.67;;
30068;SDS011;16894;49.456;10.644;2022-10-16T06:37:57;22.10;;;16.95;;
30068;SDS011;16894;49.456;10.644;2022-10-16T06:40:23;23.52;;;17.23;;
30068;SDS011;16894;49.456;10.644;2022-10-16T06:42:48;15.93;;;14.53;;
30068;SDS011;16894;49.456;10.644;2022-10-16T06:45:14;15.80;;;14.37;;
30068;SDS011;16894;49.456;10.644;2022-10-16T06:47:39;22.63;;;16.53;;
30068;SDS011;16894;49.456;10.644;2022-10-16T06:50:05;12.07;;;10.87;;
30068;SDS011;16894;49.456;10.644;2022-10-16T06:52:34;12.57;;;11.27;;
30068;SDS011;16894;49.456;10.644;2022-10-16T06:54:59;18.52;;;12.98;;
30068;SDS011;16894;49.456;10.644;2022-10-16T06:57:25;13.17;;;11.87;;
30068;SDS011;16894;49.456;10.644;2022-10-16T06:59:51;15.98;;;11.70;;
30068;SDS011;16894;49.456;10.644;2022-10-16T07:02:17;11.57;;;10.67;;
30068;SDS011;16894;49.456;10.644;2022-10-16T07:04:42;13.60;;;11.83;;
30068;SDS011;16894;49.456;10.644;2022-10-16T07:07:08;13.47;;;10.03;;
30068;SDS011;16894;49.456;10.644;2022-10-16T07:09:34;15.07;;;13.55;;
30068;SDS011;16894;49.456;10.644;2022-10-16T07:11:59;10.90;;;9.10;;
30068;SDS011;16894;49.456;10.644;2022-10-16T07:14:25;19.23;;;8.87;;
30068;SDS011;16894;49.456;10.644;2022-10-16T07:16:51;14.13;;;8.07;;
30068;SDS011;16894;49.456;10.644;2022-10-16T07:19:16;10.27;;;7.70;;
30068;SDS011;16894;49.456;10.644;2022-10-16T07:21:43;26.63;;;7.90;;
30068;SDS011;16894;49.456;10.644;2022-10-16T07:26:39;9.20;;;8.10;;
30068;SDS011;16894;49.456;10.644;2022-10-16T07:29:16;12.73;;;8.85;;
30068;SDS011;16894;49.456;10.644;2022-10-16T07:31:46;11.48;;;9.75;;
30068;SDS011;16894;49.456;10.644;2022-10-16T07:34:14;19.73;;;15.90;;
30068;SDS011;16894;49.456;10.644;2022-10-16T07:36:41;14.70;;;13.38;;
30068;SDS011;16894;49.456;10.644;2022-10-16T07:39:07;14.47;;;13.10;;
30068;SDS011;16894;49.456;10.644;2022-10-16T07:41:33;14.00;;;12.85;;
30068;SDS011;16894;49.456;10.644;2022-10-16T07:44:01;10.50;;;9.38;;
30068;SDS011;16894;49.456;10.644;2022-10-16T07:46:27;11.18;;;9.15;;
30068;SDS011;16894;49.456;10.644;2022-10-16T07:48:53;10.98;;;7.72;;
30068;SDS011;16894;49.456;10.644;2022-10-16T07:51:20;13.10;;;7.20;;
30068;SDS011;16894;49.456;10.644;2022-10-16T07:53:47;9.57;;;5.82;;
30068;SDS011;16894;49.456;10.644;2022-10-16T07:56:13;10.32;;;6.03;;
30068;SDS011;16894;49.456;10.644;2022-10-16T07:58:40;8.57;;;5.57;;
30068;SDS011;16894;49.456;10.644;2022-10-16T08:01:07;8.40;;;5.22;;
30068;SDS011;16894;49.456;10.644;2022-10-16T08:03:34;6.45;;;5.47;;
30068;SDS011;16894;49.456;10.644;2022-10-16T08:06:00;8.90;;;5.95;;
30068;SDS011;16894;49.456;10.644;2022-10-16T08:10:52;9.52;;;5.97;;
30068;SDS011;16894;49.456;10.644;2022-10-16T08:13:17;12.33;;;7.20;;
30068;SDS011;16894;49.456;10.644;2022-10-16T08:15:43;7.28;;;4.80;;
30068;SDS011;16894;49.456;10.644;2022-10-16T08:20:36;13.35;;;4.68;;
30068;SDS011;16894;49.456;10.644;2022-10-16T08:23:02;10.90;;;5.00;;
30068;SDS011;16894;49.456;10.644;2022-10-16T08:25:28;6.68;;;4.70;;
30068;SDS011;16894;49.456;10.644;2022-10-16T08:27:53;7.37;;;4.67;;
30068;SDS011;16894;49.456;10.644;2022-10-16T08:30:19;12.35;;;4.35;;
30068;SDS011;16894;49.456;10.644;2022-10-16T08:32:46;5.85;;;3.67;;
30068;SDS011;16894;49.456;10.644;2022-10-16T08:35:12;6.55;;;3.67;;
30068;SDS011;16894;49.456;10.644;2022-10-16T08:37:39;5.38;;;4.10;;
30068;SDS011;16894;49.456;10.644;2022-10-16T08:40:05;6.27;;;5.77;;
30068;SDS011;16894;49.456;10.644;2022-10-16T08:43:00;10.65;;;6.80;;
30068;SDS011;16894;49.456;10.644;2022-10-16T08:48:17;7.15;;;6.45;;
30068;SDS011;16894;49.456;10.644;2022-10-16T08:50:45;8.02;;;6.78;;
30068;SDS011;16894;49.456;10.644;2022-10-16T08:53:14;8.38;;;7.53;;
30068;SDS011;16894;49.456;10.644;2022-10-16T08:56:01;10.52;;;9.63;;
30068;SDS011;16894;49.456;10.644;2022-10-16T08:58:28;18.65;;;10.52;;
30068;SDS011;16894;49.456;10.644;2022-10-16T09:01:03;10.88;;;10.07;;
30068;SDS011;16894;49.456;10.644;2022-10-16T09:09:03;10.43;;;9.15;;
30068;SDS011;16894;49.456;10.644;2022-10-16T09:20:13;13.98;;;12.80;;
30068;SDS011;16894;49.456;10.644;2022-10-16T09:22:45;13.98;;;12.13;;
30068;SDS011;16894;49.456;10.644;2022-10-16T09:25:12;13.27;;;11.52;;
30068;SDS011;16894;49.456;10.644;2022-10-16T09:27:45;11.52;;;10.52;;
30068;SDS011;16894;49.456;10.644;2022-10-16T09:30:14;12.48;;;11.48;;
30068;SDS011;16894;49.456;10.644;2022-10-16T09:32:45;11.80;;;10.82;;
30068;SDS011;16894;49.456;10.644;2022-10-16T09:35:14;13.05;;;11.63;;
30068;SDS011;16894;49.456;10.644;2022-10-16T09:37:44;10.75;;;9.70;;
30068;SDS011;16894;49.456;10.644;2022-10-16T09:40:23;11.73;;;9.40;;
30068;SDS011;16894;49.456;10.644;2022-10-16T09:43:25;9.43;;;7.53;;
30068;SDS011;16894;49.456;10.644;2022-10-16T09:46:01;13.60;;;7.75;;
30068;SDS011;16894;49.456;10.644;2022-10-16T09:48:48;7.53;;;6.63;;
30068;SDS011;16894;49.456;10.644;2022-10-16T09:51:17;9.25;;;6.05;;
30068;SDS011;16894;49.456;10.644;2022-10-16T09:53:47;9.73;;;6.13;;
30068;SDS011;16894;49.456;10.644;2022-10-16T09:58:51;10.80;;;6.72;;
30068;SDS011;16894;49.456;10.644;2022-10-16T10:01:18;8.57;;;7.05;;
30068;SDS011;16894;49.456;10.644;2022-10-16T10:03:45;15.00;;;6.80;;
30068;SDS011;16894;49.456;10.644;2022-10-16T10:06:23;9.50;;;6.97;;
30068;SDS011;16894;49.456;10.644;2022-10-16T10:11:40;6.28;;;5.68;;
30068;SDS011;16894;49.456;10.644;2022-10-16T10:14:13;8.60;;;4.85;;
30068;SDS011;16894;49.456;10.644;2022-10-16T10:16:43;8.65;;;4.78;;
30068;SDS011;16894;49.456;10.644;2022-10-16T10:19:15;6.68;;;5.15;;
30068;SDS011;16894;49.456;10.644;2022-10-16T10:21:43;7.25;;;5.63;;
30068;SDS011;16894;49.456;10.644;2022-10-16T10:24:15;6.85;;;5.05;;
30068;SDS011;16894;49.456;10.644;2022-10-16T10:27:05;10.43;;;4.70;;
30068;SDS011;16894;49.456;10.644;2022-10-16T10:29:52;6.75;;;4.68;;
30068;SDS011;16894;49.456;10.644;2022-10-16T10:32:28;9.88;;;5.65;;
30068;SDS011;16894;49.456;10.644;2022-10-16T10:40:45;8.55;;;4.32;;
30068;SDS011;16894;49.456;10.644;2022-10-16T10:46:03;6.20;;;3.78;;
30068;SDS011;16894;49.456;10.644;2022-10-16T10:51:11;9.50;;;3.97;;
30068;SDS011;16894;49.456;10.644;2022-10-16T10:58:51;5.28;;;4.78;;
30068;SDS011;16894;49.456;10.644;2022-10-16T11:01:29;9.07;;;4.30;;
30068;SDS011;16894;49.456;10.644;2022-10-16T11:04:19;5.88;;;5.35;;
30068;SDS011;16894;49.456;10.644;2022-10-16T11:06:59;12.98;;;11.27;;
30068;SDS011;16894;49.456;10.644;2022-10-16T11:09:34;9.63;;;7.72;;
30068;SDS011;16894;49.456;10.644;2022-10-16T11:15:04;14.27;;;10.65;;
30068;SDS011;16894;49.456;10.644;2022-10-16T11:17:44;14.25;;;10.75;;
30068;SDS011;16894;49.456;10.644;2022-10-16T11:20:20;18.15;;;11.05;;
30068;SDS011;16894;49.456;10.644;2022-10-16T11:23:12;14.40;;;13.18;;
30068;SDS011;16894;49.456;10.644;2022-10-16T11:25:43;16.73;;;13.15;;
30068;SDS011;16894;49.456;10.644;2022-10-16T11:28:13;13.38;;;12.07;;
30068;SDS011;16894;49.456;10.644;2022-10-16T11:39:38;15.75;;;14.55;;
30068;SDS011;16894;49.456;10.644;2022-10-16T11:42:16;17.20;;;15.57;;
30068;SDS011;16894;49.456;10.644;2022-10-16T11:47:35;15.18;;;13.80;;
30068;SDS011;16894;49.456;10.644;2022-10-16T11:50:20;17.70;;;15.68;;
30068;SDS011;16894;49.456;10.644;2022-10-16T11:53:14;23.10;;;15.60;;
30068;SDS011;16894;49.456;10.644;2022-10-16T11:56:04;16.33;;;15.23;;
30068;SDS011;16894;49.456;10.644;2022-10-16T11:58:41;17.83;;;16.48;;
30068;SDS011;16894;49.456;10.644;2022-10-16T12:04:17;18.10;;;16.67;;
30068;SDS011;16894;49.456;10.644;2022-10-16T12:06:50;13.52;;;12.45;;
30068;SDS011;16894;49.456;10.644;2022-10-16T12:09:25;14.38;;;13.48;;
30068;SDS011;16894;49.456;10.644;2022-10-16T12:11:54;14.70;;;13.60;;
30068;SDS011;16894;49.456;10.644;2022-10-16T12:14:21;14.85;;;13.65;;
30068;SDS011;16894;49.456;10.644;2022-10-16T12:17:23;14.35;;;13.43;;
30068;SDS011;16894;49.456;10.644;2022-10-16T12:19:56;12.82;;;12.02;;
30068;SDS011;16894;49.456;10.644;2022-10-16T12:22:41;12.85;;;12.05;;
30068;SDS011;16894;49.456;10.644;2022-10-16T12:25:23;13.45;;;12.50;;
30068;SDS011;16894;49.456;10.644;2022-10-16T12:30:23;15.43;;;13.90;;
30068;SDS011;16894;49.456;10.644;2022-10-16T12:32:55;16.40;;;14.40;;
30068;SDS011;16894;49.456;10.644;2022-10-16T12:35:27;12.65;;;11.48;;
30068;SDS011;16894;49.456;10.644;2022-10-16T12:38:12;13.43;;;11.65;;
30068;SDS011;16894;49.456;10.644;2022-10-16T12:40:43;14.23;;;13.18;;
30068;SDS011;16894;49.456;10.644;2022-10-16T12:43:23;10.88;;;10.15;;
30068;SDS011;16894;49.456;10.644;2022-10-16T12:48:44;6.35;;;5.85;;
30068;SDS011;16894;49.456;10.644;2022-10-16T12:51:25;10.20;;;7.75;;
30068;SDS011;16894;49.456;10.644;2022-10-16T12:54:15;9.73;;;6.22;;
30068;SDS011;16894;49.456;10.644;2022-10-16T12:56:48;9.20;;;5.63;;
30068;SDS011;16894;49.456;10.644;2022-10-16T13:10:27;12.82;;;7.22;;
30068;SDS011;16894;49.456;10.644;2022-10-16T13:13:00;10.27;;;6.70;;
30068;SDS011;16894;49.456;10.644;2022-10-16T13:21:32;5.22;;;4.45;;
30068;SDS011;16894;49.456;10.644;2022-10-16T13:24:06;7.97;;;4.57;;
30068;SDS011;16894;49.456;10.644;2022-10-16T13:26:57;6.95;;;4.57;;
30068;SDS011;16894;49.456;10.644;2022-10-16T13:29:43;5.63;;;5.15;;
30068;SDS011;16894;49.456;10.644;2022-10-16T13:32:10;7.95;;;5.85;;
30068;SDS011;16894;49.456;10.644;2022-10-16T13:34:46;4.38;;;4.03;;
30068;SDS011;16894;49.456;10.644;2022-10-16T13:37:17;3.78;;;3.58;;
30068;SDS011;16894;49.456;10.644;2022-10-16T13:39:45;5.10;;;3.20;;
30068;SDS011;16894;49.456;10.644;2022-10-16T13:42:17;6.85;;;3.20;;
30068;SDS011;16894;49.456;10.644;2022-10-16T13:44:53;10.85;;;8.13;;
30068;SDS011;16894;49.456;10.644;2022-10-16T13:47:24;10.48;;;9.48;;
30068;SDS011;16894;49.456;10.644;2022-10-16T13:50:01;12.30;;;11.10;;
30068;SDS011;16894;49.456;10.644;2022-10-16T13:52:29;15.75;;;14.38;;
30068;SDS011;16894;49.456;10.644;2022-10-16T13:54:55;15.23;;;13.82;;
30068;SDS011;16894;49.456;10.644;2022-10-16T13:57:22;16.33;;;14.93;;
30068;SDS011;16894;49.456;10.644;2022-10-16T13:59:49;14.07;;;12.55;;
30068;SDS011;16894;49.456;10.644;2022-10-16T14:04:45;9.60;;;5.75;;
30068;SDS011;16894;49.456;10.644;2022-10-16T14:07:14;9.88;;;5.15;;
30068;SDS011;16894;49.456;10.644;2022-10-16T14:09:50;7.07;;;4.55;;
30068;SDS011;16894;49.456;10.644;2022-10-16T14:12:17;3.88;;;3.58;;
30068;SDS011;16894;49.456;10.644;2022-10-16T14:17:14;6.22;;;5.30;;
30068;SDS011;16894;49.456;10.644;2022-10-16T14:19:52;6.13;;;5.72;;
30068;SDS011;16894;49.456;10.644;2022-10-16T14:22:26;6.15;;;5.70;;
30068;SDS011;16894;49.456;10.644;2022-10-16T14:27:44;5.80;;;5.30;;
30068;SDS011;16894;49.456;10.644;2022-10-16T14:30:18;5.60;;;5.13;;
30068;SDS011;16894;49.456;10.644;2022-10-16T14:32:53;8.93;;;7.00;;
30068;SDS011;16894;49.456;10.644;2022-10-16T14:35:36;12.50;;;10.27;;
30068;SDS011;16894;49.456;10.644;2022-10-16T14:38:04;11.52;;;10.55;;
30068;SDS011;16894;49.456;10.644;2022-10-16T14:40:32;16.20;;;14.43;;
30068;SDS011;16894;49.456;10.644;2022-10-16T14:43:00;20.42;;;18.65;;
30068;SDS011;16894;49.456;10.644;2022-10-16T14:45:28;24.95;;;22.75;;
30068;SDS011;16894;49.456;10.644;2022-10-16T14:47:57;23.35;;;21.00;;
30068;SDS011;16894;49.456;10.644;2022-10-16T14:50:25;21.48;;;19.60;;
30068;SDS011;16894;49.456;10.644;2022-10-16T14:52:51;19.70;;;18.15;;
30068;SDS011;16894;49.456;10.644;2022-10-16T14:55:17;18.67;;;17.23;;
30068;SDS011;16894;49.456;10.644;2022-10-16T15:00:10;16.27;;;14.77;;
30068;SDS011;16894;49.456;10.644;2022-10-16T15:02:44;15.25;;;13.85;;
30068;SDS011;16894;49.456;10.644;2022-10-16T15:05:20;15.07;;;12.32;;
30068;SDS011;16894;49.456;10.644;2022-10-16T15:07:47;15.50;;;10.82;;
30068;SDS011;16894;49.456;10.644;2022-10-16T15:10:14;13.65;;;11.85;;
30068;SDS011;16894;49.456;10.644;2022-10-16T15:12:41;18.75;;;11.07;;
30068;SDS011;16894;49.456;10.644;2022-10-16T15:17:50;10.73;;;9.57;;
30068;SDS011;16894;49.456;10.644;2022-10-16T15:20:21;14.07;;;6.93;;
30068;SDS011;16894;49.456;10.644;2022-10-16T15:22:50;20.95;;;7.53;;
30068;SDS011;16894;49.456;10.644;2022-10-16T15:28:02;7.22;;;6.10;;
30068;SDS011;16894;49.456;10.644;2022-10-16T15:30:29;13.73;;;7.60;;
30068;SDS011;16894;49.456;10.644;2022-10-16T15:32:55;17.90;;;16.40;;
30068;SDS011;16894;49.456;10.644;2022-10-16T15:35:21;20.58;;;18.05;;
30068;SDS011;16894;49.456;10.644;2022-10-16T15:37:47;21.13;;;19.20;;
30068;SDS011;16894;49.456;10.644;2022-10-16T15:42:39;24.00;;;16.83;;
30068;SDS011;16894;49.456;10.644;2022-10-16T15:45:05;17.98;;;16.08;;
30068;SDS011;16894;49.456;10.644;2022-10-16T15:47:31;19.52;;;13.45;;
30068;SDS011;16894;49.456;10.644;2022-10-16T15:49:57;21.83;;;15.73;;
30068;SDS011;16894;49.456;10.644;2022-10-16T15:52:23;20.88;;;16.02;;
30068;SDS011;16894;49.456;10.644;2022-10-16T15:54:49;31.30;;;19.10;;
30068;SDS011;16894;49.456;10.644;2022-10-16T15:57:15;24.58;;;21.17;;
30068;SDS011;16894;49.456;10.644;2022-10-16T15:59:40;27.27;;;24.77;;
30068;SDS011;16894;49.456;10.644;2022-10-16T16:02:07;31.20;;;27.67;;
30068;SDS011;16894;49.456;10.644;2022-10-16T16:04:33;34.30;;;30.88;;
30068;SDS011;16894;49.456;10.644;2022-10-16T16:06:59;30.23;;;27.35;;
30068;SDS011;16894;49.456;10.644;2022-10-16T16:09:26;30.55;;;27.63;;
30068;SDS011;16894;49.456;10.644;2022-10-16T16:11:53;29.88;;;27.42;;
30068;SDS011;16894;49.456;10.644;2022-10-16T16:14:19;27.43;;;25.43;;
30068;SDS011;16894;49.456;10.644;2022-10-16T16:16:45;26.20;;;24.08;;
30068;SDS011;16894;49.456;10.644;2022-10-16T16:19:11;30.80;;;28.15;;
30068;SDS011;16894;49.456;10.644;2022-10-16T16:21:37;26.42;;;24.30;;
30068;SDS011;16894;49.456;10.644;2022-10-16T16:24:03;27.67;;;25.38;;
30068;SDS011;16894;49.456;10.644;2022-10-16T16:26:33;36.58;;;33.38;;
30068;SDS011;16894;49.456;10.644;2022-10-16T16:29:01;37.42;;;34.22;;
30068;SDS011;16894;49.456;10.644;2022-10-16T16:31:29;39.88;;;35.75;;
30068;SDS011;16894;49.456;10.644;2022-10-16T16:33:56;38.38;;;35.10;;
30068;SDS011;16894;49.456;10.644;2022-10-16T16:36:23;45.35;;;41.80;;
30068;SDS011;16894;49.456;10.644;2022-10-16T16:38:49;50.58;;;46.53;;
30068;SDS011;16894;49.456;10.644;2022-10-16T16:41:25;56.40;;;51.45;;
30068;SDS011;16894;49.456;10.644;2022-10-16T16:46:18;51.22;;;46.55;;